Time;durP1;ratioP1;P1;durP2;ratioP2;P2;SDS_P1;SDS_P2;PMS_P1;PMS_P2;Temp;Humidity;BMP_temperature;BMP_pressure;BME280_temperature;BME280_humidity;BME280_pressure;Samples;Min_cycle;Max_cycle;Signal;HPM_P1;HPM_P2
2022/06/29 00:00:12;;;;;;;6.80;4.05;;;;;15.60;94088.00;;;;7387085;19;20474;-74
2022/06/29 00:02:42;;;;;;;7.43;3.97;;;;;15.60;94085.00;;;;7392622;19;20125;-77
2022/06/29 00:05:21;;;;;;;4.57;4.07;;;;;15.60;94084.00;;;;7393755;19;20442;-76
2022/06/29 00:07:49;;;;;;;4.60;4.18;;;;;15.70;94082.00;;;;7391812;19;20460;-78
2022/06/29 00:10:24;;;;;;;4.38;3.97;;;;;15.70;94079.00;;;;7390968;19;20167;-77
2022/06/29 00:12:52;;;;;;;4.38;4.03;;;;;15.60;94075.00;;;;7392380;19;20128;-77
2022/06/29 00:15:20;;;;;;;5.93;4.85;;;;;15.50;94085.00;;;;7389736;19;20121;-77
2022/06/29 00:17:55;;;;;;;6.03;4.20;;;;;15.60;94080.00;;;;7389435;19;20150;-76
2022/06/29 00:20:23;;;;;;;5.20;4.70;;;;;15.60;94078.00;;;;7388836;19;20509;-76
2022/06/29 00:22:51;;;;;;;4.20;3.90;;;;;15.60;94071.00;;;;7388830;19;20148;-75
2022/06/29 00:25:31;;;;;;;4.80;4.40;;;;;15.50;94071.00;;;;7390153;19;20129;-74
2022/06/29 00:27:59;;;;;;;4.93;4.45;;;;;15.60;94068.00;;;;7390472;19;20594;-74
2022/06/29 00:30:34;;;;;;;5.22;4.30;;;;;15.50;94066.00;;;;7391142;19;20137;-77
2022/06/29 00:33:01;;;;;;;5.13;4.72;;;;;15.50;94058.00;;;;7389883;19;20203;-75
2022/06/29 00:35:29;;;;;;;7.60;4.82;;;;;15.60;94055.00;;;;7386011;19;20227;-74
2022/06/29 00:38:04;;;;;;;8.30;4.38;;;;;15.60;94049.00;;;;7390198;19;20162;-76
2022/06/29 00:40:31;;;;;;;5.28;4.60;;;;;15.50;94052.00;;;;7386695;19;20148;-76
2022/06/29 00:43:00;;;;;;;6.75;4.20;;;;;15.50;94057.00;;;;7385599;19;20145;-76
2022/06/29 00:45:34;;;;;;;5.05;4.10;;;;;15.40;94062.00;;;;7386204;19;20216;-76
2022/06/29 00:48:01;;;;;;;4.70;4.30;;;;;15.50;94055.00;;;;7389266;19;20121;-76
2022/06/29 00:50:33;;;;;;;7.05;4.32;;;;;15.50;94053.00;;;;7391586;19;20599;-76
2022/06/29 00:53:13;;;;;;;4.90;4.50;;;;;15.50;94057.00;;;;7397291;19;20144;-74
2022/06/29 00:55:44;;;;;;;4.80;4.30;;;;;15.50;94056.00;;;;7398853;19;20132;-76
2022/06/29 00:58:22;;;;;;;4.90;4.50;;;;;15.60;94052.00;;;;7395582;19;20129;-76
2022/06/29 01:00:51;;;;;;;4.85;4.45;;;;;15.50;94052.00;;;;7396038;19;20141;-76
2022/06/29 01:03:26;;;;;;;4.60;4.25;;;;;15.50;94049.00;;;;7397251;19;20467;-76
2022/06/29 01:05:56;;;;;;;6.05;4.60;;;;;15.50;94052.00;;;;7396843;19;20152;-76
2022/06/29 01:08:23;;;;;;;5.13;4.65;;;;;15.60;94052.00;;;;7395143;19;20133;-76
2022/06/29 01:10:58;;;;;;;7.22;4.53;;;;;15.70;94046.00;;;;7397046;19;20133;-75
2022/06/29 01:13:27;;;;;;;8.30;4.72;;;;;15.80;94054.00;;;;7400178;19;20507;-76
2022/06/29 01:15:54;;;;;;;6.22;5.05;;;;;15.90;94050.00;;;;7395861;19;20706;-76
2022/06/29 01:18:32;;;;;;;4.93;4.28;;;;;16.00;94046.00;;;;7396273;19;20135;-77
2022/06/29 01:21:05;;;;;;;4.97;4.43;;;;;16.00;94046.00;;;;7396095;19;20592;-76
2022/06/29 01:23:52;;;;;;;5.60;4.80;;;;;16.00;94046.00;;;;7392845;19;20166;-77
2022/06/29 01:26:27;;;;;;;6.10;4.45;;;;;15.90;94028.00;;;;7396452;19;20137;-77
2022/06/29 01:29:01;;;;;;;5.57;4.15;;;;;15.80;94038.00;;;;7394406;19;20642;-77
2022/06/29 01:31:28;;;;;;;5.32;4.65;;;;;15.90;94044.00;;;;7395534;19;20141;-76
2022/06/29 01:33:56;;;;;;;7.30;4.15;;;;;15.80;94038.00;;;;7396440;19;20587;-76
2022/06/29 01:36:30;;;;;;;6.18;4.22;;;;;15.90;94044.00;;;;7395405;19;20753;-77
2022/06/29 01:38:57;;;;;;;5.25;4.53;;;;;15.90;94042.00;;;;7395097;19;20129;-78
2022/06/29 01:41:25;;;;;;;8.07;4.50;;;;;16.00;94040.00;;;;7391089;19;20141;-77
2022/06/29 01:43:59;;;;;;;4.88;4.30;;;;;16.10;94025.00;;;;7395673;19;20622;-77
2022/06/29 01:46:27;;;;;;;4.68;4.30;;;;;15.90;94039.00;;;;7395531;19;20172;-77
2022/06/29 01:48:54;;;;;;;6.45;4.40;;;;;15.80;94043.00;;;;7396314;19;20148;-76
2022/06/29 01:51:29;;;;;;;5.78;4.63;;;;;15.70;94043.00;;;;7394036;19;20157;-77
2022/06/29 01:53:56;;;;;;;6.88;4.75;;;;;15.70;94035.00;;;;7397112;19;20188;-77
2022/06/29 01:56:24;;;;;;;4.20;3.80;;;;;15.80;94037.00;;;;7395976;19;20125;-77
2022/06/29 01:58:58;;;;;;;6.78;4.75;;;;;15.70;94031.00;;;;7394057;19;20204;-75
2022/06/29 02:01:25;;;;;;;7.13;4.60;;;;;15.70;94034.00;;;;7393039;19;20182;-76
2022/06/29 02:03:53;;;;;;;4.32;3.88;;;;;15.60;94031.00;;;;7392765;19;20165;-76
2022/06/29 02:06:31;;;;;;;5.53;4.30;;;;;15.40;94034.00;;;;7393513;19;20152;-76
2022/06/29 02:08:58;;;;;;;5.32;4.60;;;;;15.40;94035.00;;;;7395346;19;20129;-75
2022/06/29 02:11:27;;;;;;;5.25;4.75;;;;;15.30;94036.00;;;;7392770;19;20172;-76
2022/06/29 02:14:01;;;;;;;5.93;4.50;;;;;15.30;94038.00;;;;7393257;19;20128;-76
2022/06/29 02:16:37;;;;;;;4.28;3.97;;;;;15.30;94028.00;;;;7394180;19;20155;-76
2022/06/29 02:19:11;;;;;;;5.32;4.82;;;;;15.30;94027.00;;;;7395102;19;20141;-77
2022/06/29 02:21:39;;;;;;;4.93;4.43;;;;;15.30;94035.00;;;;7394689;19;20129;-75
2022/06/29 02:24:06;;;;;;;4.70;4.28;;;;;15.20;94024.00;;;;7390817;19;20185;-76
2022/06/29 02:26:40;;;;;;;6.25;4.20;;;;;15.10;94018.00;;;;7394920;19;20198;-77
2022/06/29 02:29:09;;;;;;;5.32;4.82;;;;;15.10;94031.00;;;;7393181;19;20631;-76
2022/06/29 02:34:44;;;;;;;5.68;4.78;;;;;15.10;94024.00;;;;7392772;19;20943;-75
2022/06/29 02:37:16;;;;;;;5.22;4.72;;;;;15.20;94029.00;;;;7393916;19;20534;-75
2022/06/29 02:39:51;;;;;;;4.93;4.53;;;;;15.10;94018.00;;;;7392576;19;20137;-77
2022/06/29 02:42:19;;;;;;;5.15;4.75;;;;;15.20;94023.00;;;;7392343;19;20520;-75
2022/06/29 02:44:47;;;;;;;5.35;4.85;;;;;15.20;94020.00;;;;7390503;19;20133;-75
2022/06/29 02:47:22;;;;;;;5.50;4.82;;;;;15.10;94028.00;;;;7393905;19;20618;-77
2022/06/29 02:49:49;;;;;;;6.15;4.65;;;;;15.10;94019.00;;;;7392648;19;20148;-78
2022/06/29 02:52:17;;;;;;;6.45;4.70;;;;;15.00;94017.00;;;;7393810;19;20599;-77
2022/06/29 02:54:51;;;;;;;6.97;5.05;;;;;15.00;94006.00;;;;7393515;19;20144;-75
2022/06/29 02:57:24;;;;;;;5.30;4.80;;;;;15.10;94010.00;;;;7392046;19;20145;-77
2022/06/29 02:59:52;;;;;;;5.25;4.85;;;;;15.20;94005.00;;;;7391572;19;20145;-77
2022/06/29 03:02:26;;;;;;;6.40;4.97;;;;;15.20;94002.00;;;;7391259;19;20165;-76
2022/06/29 03:04:54;;;;;;;6.60;5.90;;;;;15.20;94000.00;;;;7391980;19;20132;-78
2022/06/29 03:07:21;;;;;;;11.35;5.30;;;;;15.20;93994.00;;;;7391928;19;20615;-77
2022/06/29 03:09:55;;;;;;;6.72;5.93;;;;;15.30;93997.00;;;;7392144;19;20136;-76
2022/06/29 03:12:22;;;;;;;5.57;5.07;;;;;15.30;93996.00;;;;7391273;19;20125;-76
2022/06/29 03:14:52;;;;;;;5.82;4.95;;;;;15.20;93999.00;;;;7388664;19;20131;-77
2022/06/29 03:17:26;;;;;;;5.75;5.25;;;;;15.30;94006.00;;;;7392724;19;20149;-76
2022/06/29 03:19:54;;;;;;;5.88;5.18;;;;;15.40;94000.00;;;;7391342;19;20157;-76
2022/06/29 03:22:22;;;;;;;6.10;5.60;;;;;15.50;93998.00;;;;7390126;19;20145;-76
2022/06/29 03:25:03;;;;;;;6.10;5.60;;;;;15.60;93989.00;;;;7392117;19;20625;-76
2022/06/29 03:27:32;;;;;;;6.55;5.88;;;;;15.60;93997.00;;;;7393507;19;20500;-76
2022/06/29 03:30:08;;;;;;;6.45;5.88;;;;;15.70;93993.00;;;;7391275;19;20607;-76
2022/06/29 03:32:35;;;;;;;6.43;4.90;;;;;15.90;93992.00;;;;7389576;19;20984;-76
2022/06/29 03:35:08;;;;;;;7.97;5.75;;;;;15.90;93990.00;;;;7392318;19;20607;-77
2022/06/29 03:37:46;;;;;;;7.55;5.68;;;;;15.80;93994.00;;;;7393132;19;20116;-76
2022/06/29 03:40:15;;;;;;;7.03;5.30;;;;;15.80;93992.00;;;;7389675;19;20141;-76
2022/06/29 03:42:42;;;;;;;6.30;4.53;;;;;15.70;93992.00;;;;7391898;19;20144;-77
2022/06/29 03:45:17;;;;;;;6.00;5.00;;;;;15.80;93996.00;;;;7392583;19;20116;-76
2022/06/29 03:47:44;;;;;;;6.55;5.22;;;;;15.70;93996.00;;;;7389320;19;20136;-77
2022/06/29 03:50:14;;;;;;;6.05;5.22;;;;;15.80;93999.00;;;;7390446;19;20587;-76
2022/06/29 03:52:51;;;;;;;4.93;4.43;;;;;15.80;94004.00;;;;7391525;19;20226;-75
2022/06/29 03:55:19;;;;;;;5.25;4.75;;;;;16.00;93993.00;;;;7392267;19;20847;-75
2022/06/29 03:57:47;;;;;;;4.88;4.47;;;;;15.80;94002.00;;;;7390576;19;20125;-76
2022/06/29 04:00:20;;;;;;;7.68;4.38;;;;;15.80;93988.00;;;;7389287;19;20145;-76
2022/06/29 04:02:48;;;;;;;6.68;4.72;;;;;15.70;93985.00;;;;7388144;19;20651;-76
2022/06/29 04:05:16;;;;;;;5.00;4.60;;;;;15.80;93984.00;;;;7390570;19;20808;-76
2022/06/29 04:07:49;;;;;;;5.28;4.75;;;;;15.90;93981.00;;;;7392895;19;20144;-75
2022/06/29 04:10:19;;;;;;;8.52;4.90;;;;;15.90;93978.00;;;;7390281;19;20212;-75
2022/06/29 04:12:46;;;;;;;7.45;4.75;;;;;15.90;93979.00;;;;7390002;19;20145;-76
2022/06/29 04:15:21;;;;;;;5.13;4.63;;;;;15.90;93975.00;;;;7391034;19;20136;-76
2022/06/29 04:17:48;;;;;;;6.63;4.82;;;;;16.00;93974.00;;;;7389557;19;20132;-76
2022/06/29 04:23:16;;;;;;;5.32;4.82;;;;;16.10;93982.00;;;;7389556;19;20212;-76
2022/06/29 04:25:43;;;;;;;6.88;4.85;;;;;16.10;93981.00;;;;7389713;19;20610;-76
2022/06/29 04:28:20;;;;;;;5.45;4.95;;;;;16.10;93975.00;;;;7389641;19;20148;-76
2022/06/29 04:30:49;;;;;;;8.80;4.55;;;;;16.10;93969.00;;;;7389353;19;20518;-76
2022/06/29 04:33:21;;;;;;;5.05;4.55;;;;;16.10;93971.00;;;;7388472;19;20363;-76
2022/06/29 04:35:58;;;;;;;5.20;4.70;;;;;16.10;93985.00;;;;7390308;19;20156;-76
2022/06/29 04:38:25;;;;;;;6.40;4.30;;;;;16.00;93991.00;;;;7389347;19;20626;-77
2022/06/29 04:40:53;;;;;;;6.18;4.53;;;;;16.10;93986.00;;;;7388704;19;20607;-77
2022/06/29 04:43:29;;;;;;;5.70;4.75;;;;;16.30;93983.00;;;;7391808;19;20128;-77
2022/06/29 04:48:56;;;;;;;7.93;4.53;;;;;16.20;93983.00;;;;7390565;19;20132;-77
2022/06/29 04:51:25;;;;;;;4.80;4.40;;;;;16.30;93981.00;;;;7381850;19;20149;-76
2022/06/29 04:54:00;;;;;;;6.05;4.72;;;;;16.50;93981.00;;;;7393028;19;20208;-74
2022/06/29 04:56:33;;;;;;;6.15;4.78;;;;;16.80;93987.00;;;;7392697;19;20137;-75
2022/06/29 04:59:09;;;;;;;13.45;5.70;;;;;16.90;93977.00;;;;7393188;19;20534;-75
2022/06/29 05:01:39;;;;;;;6.13;5.15;;;;;17.20;93988.00;;;;7386306;19;20133;-75
2022/06/29 05:04:07;;;;;;;5.78;5.10;;;;;17.40;93985.00;;;;7389565;19;20133;-76
2022/06/29 05:06:41;;;;;;;5.43;4.90;;;;;17.40;93986.00;;;;7391714;19;20133;-78
2022/06/29 05:09:09;;;;;;;6.15;5.00;;;;;17.60;93989.00;;;;7391399;19;20171;-76
2022/06/29 05:11:36;;;;;;;5.45;4.55;;;;;17.90;93985.00;;;;7387908;19;20669;-75
2022/06/29 05:14:10;;;;;;;5.07;4.50;;;;;18.40;93978.00;;;;7389705;19;20615;-76
2022/06/29 05:16:38;;;;;;;4.63;4.20;;;;;18.80;93979.00;;;;7390203;19;20504;-76
2022/06/29 05:19:05;;;;;;;5.45;4.55;;;;;19.10;93971.00;;;;7392653;19;20486;-77
2022/06/29 05:21:40;;;;;;;4.45;4.05;;;;;19.40;93977.00;;;;7388770;19;20132;-77
2022/06/29 05:24:14;;;;;;;5.93;4.03;;;;;19.40;93976.00;;;;7386219;19;20180;-76
2022/06/29 05:26:49;;;;;;;4.25;3.70;;;;;19.30;93988.00;;;;7389789;19;20165;-75
2022/06/29 05:29:17;;;;;;;4.18;3.80;;;;;19.00;93987.00;;;;7390740;19;20136;-76
2022/06/29 05:31:45;;;;;;;6.40;4.07;;;;;19.00;93992.00;;;;7389236;19;20133;-77
2022/06/29 05:34:19;;;;;;;4.05;3.75;;;;;18.90;93978.00;;;;7386755;19;20642;-77
2022/06/29 05:36:47;;;;;;;4.30;3.90;;;;;19.00;93983.00;;;;7389475;19;20169;-77
2022/06/29 05:39:14;;;;;;;7.13;3.60;;;;;19.00;93983.00;;;;7397980;19;20501;-77
2022/06/29 05:41:49;;;;;;;5.03;3.67;;;;;19.20;93982.00;;;;7392565;19;20599;-77
2022/06/29 05:44:16;;;;;;;4.25;3.95;;;;;19.40;93977.00;;;;7393845;19;20128;-77
2022/06/29 05:46:44;;;;;;;6.00;4.22;;;;;19.30;93975.00;;;;7393485;19;20137;-77
2022/06/29 05:49:19;;;;;;;5.25;3.58;;;;;19.40;93976.00;;;;7398475;19;20152;-77
2022/06/29 05:51:47;;;;;;;4.63;3.90;;;;;19.50;93972.00;;;;7394459;19;20152;-77
2022/06/29 05:54:14;;;;;;;3.60;3.30;;;;;19.90;93964.00;;;;7396011;19;20125;-76
2022/06/29 05:56:49;;;;;;;4.78;3.72;;;;;20.10;93970.00;;;;7397090;19;20148;-76
2022/06/29 05:59:16;;;;;;;3.88;3.45;;;;;20.30;93962.00;;;;7397466;19;20147;-76
2022/06/29 06:01:44;;;;;;;4.05;3.67;;;;;20.50;93967.00;;;;7391988;19;20216;-76
2022/06/29 06:04:18;;;;;;;3.50;3.10;;;;;20.50;93965.00;;;;7393717;19;20188;-76
2022/06/29 06:06:46;;;;;;;4.53;3.97;;;;;20.40;93965.00;;;;7396481;19;20137;-76
2022/06/29 06:09:13;;;;;;;5.47;4.10;;;;;20.30;93963.00;;;;7397047;19;20227;-76
2022/06/29 06:11:48;;;;;;;3.88;3.55;;;;;20.50;93963.00;;;;7392331;19;20168;-76
2022/06/29 06:14:17;;;;;;;3.75;3.45;;;;;20.60;93967.00;;;;7395347;19;20221;-75
2022/06/29 06:16:51;;;;;;;6.60;3.83;;;;;20.80;93959.00;;;;7397248;19;20128;-75
2022/06/29 06:19:26;;;;;;;3.78;3.47;;;;;21.00;93962.00;;;;7394952;19;20464;-76
2022/06/29 06:21:54;;;;;;;3.90;3.60;;;;;21.20;93960.00;;;;7393927;19;20133;-76
2022/06/29 06:24:22;;;;;;;5.60;3.35;;;;;21.10;93966.00;;;;7393853;19;20172;-75
2022/06/29 06:27:03;;;;;;;3.60;3.30;;;;;21.40;93967.00;;;;7397443;19;20132;-75
2022/06/29 06:29:31;;;;;;;3.58;3.30;;;;;21.60;93958.00;;;;7396179;19;20141;-75
2022/06/29 06:32:07;;;;;;;4.03;3.72;;;;;21.80;93960.00;;;;7393647;19;20155;-76
2022/06/29 06:34:34;;;;;;;3.35;3.10;;;;;21.90;93965.00;;;;7394138;19;20162;-76
2022/06/29 06:37:02;;;;;;;5.00;3.60;;;;;22.10;93962.00;;;;7395686;19;20177;-75
2022/06/29 06:39:36;;;;;;;4.05;3.55;;;;;22.10;93962.00;;;;7394745;19;20476;-76
2022/06/29 06:42:04;;;;;;;4.25;3.85;;;;;22.40;93964.00;;;;7392365;19;20144;-75
2022/06/29 06:44:32;;;;;;;5.78;3.78;;;;;22.50;93967.00;;;;7391366;19;20153;-76
2022/06/29 06:47:07;;;;;;;3.50;3.20;;;;;22.60;93965.00;;;;7395321;19;20223;-77
2022/06/29 06:49:35;;;;;;;4.30;3.83;;;;;22.50;93968.00;;;;7394037;19;20135;-78
2022/06/29 06:52:02;;;;;;;4.13;3.47;;;;;22.50;93972.00;;;;7396080;19;20209;-76
2022/06/29 06:54:37;;;;;;;3.67;3.38;;;;;22.60;93968.00;;;;7394248;19;20152;-76
2022/06/29 06:57:05;;;;;;;3.28;3.08;;;;;22.70;93984.00;;;;7395803;19;20129;-75
2022/06/29 06:59:32;;;;;;;5.03;4.28;;;;;22.30;93981.00;;;;7393252;19;20137;-76
2022/06/29 07:02:07;;;;;;;5.25;3.72;;;;;22.30;93981.00;;;;7392997;19;20113;-73
2022/06/29 07:04:35;;;;;;;3.85;3.55;;;;;22.30;93987.00;;;;7395737;19;20876;-74
2022/06/29 07:07:03;;;;;;;5.28;3.33;;;;;22.50;93984.00;;;;7395905;19;20125;-77
2022/06/29 07:09:37;;;;;;;3.88;3.58;;;;;22.60;93985.00;;;;7392589;19;20149;-78
2022/06/29 07:12:05;;;;;;;4.80;3.67;;;;;22.50;93977.00;;;;7390980;19;20180;-74
2022/06/29 07:14:33;;;;;;;5.80;3.47;;;;;22.30;93980.00;;;;7393487;19;20129;-76
2022/06/29 07:17:08;;;;;;;3.53;3.25;;;;;22.40;93980.00;;;;7395740;19;20637;-77
2022/06/29 07:19:36;;;;;;;5.45;3.40;;;;;22.70;93977.00;;;;7393106;19;20894;-77
2022/06/29 07:22:05;;;;;;;3.60;3.30;;;;;23.30;93958.00;;;;7392275;19;20201;-77
2022/06/29 07:24:46;;;;;;;4.22;3.83;;;;;23.10;93963.00;;;;7391782;19;20384;-77
2022/06/29 07:27:14;;;;;;;4.60;3.97;;;;;23.40;93972.00;;;;7395139;19;20199;-78
2022/06/29 07:29:52;;;;;;;4.15;3.60;;;;;23.00;93977.00;;;;7390085;19;20199;-77
2022/06/29 07:32:20;;;;;;;4.03;3.45;;;;;22.90;93982.00;;;;7390144;19;20136;-78
2022/06/29 07:34:48;;;;;;;6.75;3.53;;;;;22.20;93984.00;;;;7393318;19;20599;-77
2022/06/29 07:37:22;;;;;;;3.90;3.60;;;;;21.50;93999.00;;;;7388772;19;20670;-77
2022/06/29 07:39:49;;;;;;;3.90;3.60;;;;;21.00;93998.00;;;;7390990;19;20128;-77
2022/06/29 07:42:38;;;;;;;4.00;3.70;;;;;20.90;93999.00;;;;7389802;19;20143;-78
2022/06/29 07:45:12;;;;;;;4.15;3.80;;;;;20.80;94015.00;;;;7387914;19;20199;-77
2022/06/29 07:47:40;;;;;;;5.40;4.00;;;;;20.80;94011.00;;;;7390485;19;20136;-77
2022/06/29 07:50:11;;;;;;;5.15;3.97;;;;;20.80;94007.00;;;;7390400;19;20140;-77
2022/06/29 07:52:46;;;;;;;4.88;3.65;;;;;20.80;94015.00;;;;7390955;19;20158;-77
2022/06/29 07:55:13;;;;;;;4.18;3.88;;;;;20.90;94013.00;;;;7390546;19;20467;-75
2022/06/29 07:57:41;;;;;;;7.88;4.32;;;;;20.80;94016.00;;;;7391462;19;20136;-76
2022/06/29 08:00:15;;;;;;;6.00;3.90;;;;;20.80;94011.00;;;;7388145;19;20137;-76
2022/06/29 08:02:43;;;;;;;6.80;4.10;;;;;20.80;94011.00;;;;7389149;19;20591;-77
2022/06/29 08:05:11;;;;;;;3.53;3.22;;;;;20.80;94011.00;;;;7390668;19;20618;-76
2022/06/29 08:07:45;;;;;;;4.38;3.88;;;;;20.90;94009.00;;;;7389414;19;20125;-77
2022/06/29 08:10:13;;;;;;;4.00;3.58;;;;;21.00;94005.00;;;;7391134;19;20128;-77
2022/06/29 08:12:40;;;;;;;4.15;3.70;;;;;21.10;94014.00;;;;7389548;19;20140;-76
2022/06/29 08:15:17;;;;;;;4.53;3.70;;;;;21.40;94004.00;;;;7389071;19;20197;-76
2022/06/29 08:17:45;;;;;;;6.63;3.95;;;;;21.60;94003.00;;;;7382534;19;20125;-77
2022/06/29 08:20:13;;;;;;;4.25;3.85;;;;;21.70;94002.00;;;;7383600;19;20151;-77
2022/06/29 08:23:00;;;;;;;4.78;3.83;;;;;22.00;94010.00;;;;7384284;19;20137;-77
2022/06/29 08:25:35;;;;;;;3.78;3.47;;;;;22.10;94002.00;;;;7390916;19;20172;-75
2022/06/29 08:28:31;;;;;;;4.00;3.70;;;;;22.30;94003.00;;;;7393833;19;20626;-75
2022/06/29 08:30:59;;;;;;;4.43;4.03;;;;;22.40;93998.00;;;;7386254;19;20148;-75
2022/06/29 08:33:33;;;;;;;3.80;3.50;;;;;22.50;93998.00;;;;7393839;19;20219;-76
2022/06/29 08:36:01;;;;;;;4.53;4.20;;;;;22.50;93996.00;;;;7390935;19;20201;-76
2022/06/29 08:38:28;;;;;;;6.82;3.53;;;;;22.30;94001.00;;;;7387748;19;20133;-76
2022/06/29 08:41:03;;;;;;;4.35;3.95;;;;;22.50;94000.00;;;;7388859;19;20136;-75
2022/06/29 08:43:32;;;;;;;5.25;3.83;;;;;22.20;93990.00;;;;7387503;19;20610;-76
2022/06/29 08:45:59;;;;;;;6.32;4.00;;;;;22.10;93997.00;;;;7385453;19;20152;-76
2022/06/29 08:48:33;;;;;;;5.03;4.20;;;;;21.90;93995.00;;;;7388833;19;20172;-76
2022/06/29 08:51:02;;;;;;;3.80;3.38;;;;;21.70;94005.00;;;;7391224;19;20125;-76
2022/06/29 08:53:32;;;;;;;5.43;3.17;;;;;21.70;94003.00;;;;7388843;19;20136;-76
2022/06/29 08:56:09;;;;;;;4.35;3.08;;;;;21.60;94013.00;;;;7388069;19;20182;-76
2022/06/29 08:58:39;;;;;;;5.25;3.70;;;;;21.50;94014.00;;;;7389658;19;20160;-77
2022/06/29 09:01:15;;;;;;;4.35;3.95;;;;;21.40;94014.00;;;;7391183;19;20591;-76
2022/06/29 09:03:43;;;;;;;4.07;3.63;;;;;21.30;94009.00;;;;7386376;19;20141;-75
2022/06/29 09:06:11;;;;;;;5.55;4.18;;;;;21.40;94015.00;;;;7390288;19;20322;-76
2022/06/29 09:08:45;;;;;;;6.57;3.67;;;;;21.40;94015.00;;;;7388919;19;20116;-76
2022/06/29 09:11:28;;;;;;;4.25;3.85;;;;;21.40;94009.00;;;;7387966;19;20547;-76
2022/06/29 09:14:12;;;;;;;4.65;3.70;;;;;21.40;94012.00;;;;7397518;19;20125;-75
2022/06/29 09:17:01;;;;;;;3.97;3.67;;;;;21.40;94006.00;;;;7397077;19;20133;-76
2022/06/29 09:19:35;;;;;;;4.22;3.40;;;;;21.30;94002.00;;;;7398041;19;20448;-76
2022/06/29 09:22:03;;;;;;;4.07;3.42;;;;;21.80;94006.00;;;;7395723;19;20133;-76
2022/06/29 09:24:33;;;;;;;3.83;3.25;;;;;22.10;93999.00;;;;7394538;19;20171;-76
2022/06/29 09:27:36;;;;;;;5.25;3.45;;;;;22.40;94004.00;;;;7396265;19;20132;-76
2022/06/29 09:30:05;;;;;;;3.92;3.63;;;;;22.30;93996.00;;;;7396778;19;20121;-75
2022/06/29 09:32:39;;;;;;;6.18;3.75;;;;;22.50;93999.00;;;;7395868;19;20151;-76
2022/06/29 09:35:13;;;;;;;4.90;3.40;;;;;22.40;94001.00;;;;7395990;19;20628;-75
2022/06/29 09:37:47;;;;;;;5.63;3.72;;;;;22.70;94003.00;;;;7393439;19;20645;-76
2022/06/29 09:40:15;;;;;;;6.95;3.50;;;;;22.90;93997.00;;;;7394902;19;20138;-76
2022/06/29 09:42:42;;;;;;;3.40;3.10;;;;;23.10;94005.00;;;;7396014;19;20120;-75
2022/06/29 09:45:16;;;;;;;6.03;3.38;;;;;23.60;94003.00;;;;7394211;19;20137;-75
2022/06/29 09:47:44;;;;;;;3.63;3.33;;;;;23.40;93994.00;;;;7394065;19;20125;-75
2022/06/29 09:50:12;;;;;;;5.32;3.83;;;;;23.30;94005.00;;;;7394664;19;20141;-75
2022/06/29 09:52:48;;;;;;;4.35;3.58;;;;;23.40;93992.00;;;;7395094;19;20141;-76
2022/06/29 09:55:16;;;;;;;4.57;3.50;;;;;23.90;93995.00;;;;7393461;19;20658;-76
2022/06/29 09:57:46;;;;;;;4.28;3.85;;;;;23.70;93999.00;;;;7395440;19;20133;-76
2022/06/29 10:03:26;;;;;;;3.55;3.25;;;;;23.00;94008.00;;;;7390148;19;20140;-76
2022/06/29 10:06:05;;;;;;;3.75;3.45;;;;;22.90;94005.00;;;;7392926;19;20147;-75
2022/06/29 10:08:34;;;;;;;5.95;3.58;;;;;22.80;94009.00;;;;7392112;19;20158;-76
2022/06/29 10:14:11;;;;;;;4.05;3.65;;;;;22.60;94006.00;;;;7394102;19;20610;-75
2022/06/29 10:17:05;;;;;;;4.50;3.60;;;;;22.30;94015.00;;;;7393611;19;20465;-76
2022/06/29 10:19:59;;;;;;;4.30;3.90;;;;;22.00;94018.00;;;;7392890;19;20141;-76
2022/06/29 10:22:33;;;;;;;5.22;3.17;;;;;21.60;94022.00;;;;7391757;19;20543;-75
2022/06/29 10:25:15;;;;;;;3.70;3.40;;;;;21.50;94029.00;;;;7390354;19;20169;-75
2022/06/29 10:28:18;;;;;;;3.85;3.50;;;;;21.20;94023.00;;;;7395816;19;20472;-76
2022/06/29 10:30:46;;;;;;;3.90;3.50;;;;;21.00;94025.00;;;;7395787;19;20129;-76
2022/06/29 10:33:34;;;;;;;3.55;3.25;;;;;20.80;94031.00;;;;7390137;19;20147;-75
2022/06/29 10:36:05;;;;;;;5.40;3.92;;;;;20.80;94031.00;;;;7393317;19;20753;-74
2022/06/29 10:38:54;;;;;;;3.90;3.50;;;;;20.80;94036.00;;;;7386650;19;20758;-75
2022/06/29 10:44:17;;;;;;;3.65;3.30;;;;;20.90;94022.00;;;;7389360;19;20170;-75
2022/06/29 10:46:58;;;;;;;5.05;3.80;;;;;21.10;94021.00;;;;7383159;19;20204;-75
2022/06/29 10:49:32;;;;;;;4.20;3.72;;;;;21.30;94022.00;;;;7388458;19;20141;-75
2022/06/29 10:52:00;;;;;;;5.20;3.50;;;;;21.50;94017.00;;;;7390979;19;20128;-75
2022/06/29 10:54:32;;;;;;;3.85;3.47;;;;;21.70;94012.00;;;;7393243;19;20124;-76
2022/06/29 10:57:07;;;;;;;4.25;3.83;;;;;21.90;94016.00;;;;7392398;19;20124;-75
2022/06/29 10:59:38;;;;;;;4.32;3.92;;;;;22.20;94001.00;;;;7391681;19;20137;-74
2022/06/29 11:02:17;;;;;;;3.38;3.08;;;;;22.40;94002.00;;;;7392048;19;20144;-76
2022/06/29 11:04:51;;;;;;;3.95;3.65;;;;;22.60;93990.00;;;;7388224;19;20148;-77
2022/06/29 11:12:58;;;;;;;3.88;3.50;;;;;24.10;93983.00;;;;7389098;19;20237;-75
2022/06/29 11:15:40;;;;;;;4.55;3.80;;;;;24.00;93984.00;;;;7388245;19;20803;-76
2022/06/29 11:18:12;;;;;;;4.00;3.60;;;;;24.30;93984.00;;;;7388162;19;20177;-75
2022/06/29 11:20:51;;;;;;;4.18;3.40;;;;;24.40;93979.00;;;;7391889;19;20475;-76
2022/06/29 11:23:32;;;;;;;3.88;3.45;;;;;24.60;93979.00;;;;7392441;19;20132;-74
2022/06/29 11:26:08;;;;;;;7.07;4.00;;;;;24.90;93974.00;;;;7392229;19;20124;-76
2022/06/29 11:28:40;;;;;;;6.18;3.38;;;;;24.90;93969.00;;;;7390793;19;20132;-75
2022/06/29 11:31:14;;;;;;;3.97;3.67;;;;;24.90;93980.00;;;;7393040;19;20591;-74
2022/06/29 11:33:43;;;;;;;5.43;3.70;;;;;24.90;93974.00;;;;7391730;19;20125;-76
2022/06/29 11:36:19;;;;;;;5.38;4.10;;;;;25.10;93963.00;;;;7387330;19;20143;-75
2022/06/29 11:38:57;;;;;;;4.50;3.65;;;;;26.40;93959.00;;;;7392513;19;20129;-76
2022/06/29 11:43:03;;;;;;;5.20;3.47;;;;;26.20;93975.00;;;;7391142;19;20140;-76
2022/06/29 11:44:30;;;;;;;4.78;3.28;;;;;25.60;93971.00;;;;7390665;19;20140;-76
2022/06/29 11:46:58;;;;;;;4.90;4.22;;;;;25.50;93968.00;;;;7386892;19;20145;-75
2022/06/29 11:49:42;;;;;;;4.57;3.33;;;;;25.30;93971.00;;;;7391229;19;20195;-74
2022/06/29 11:52:13;;;;;;;4.88;3.63;;;;;25.20;93964.00;;;;7390910;19;20140;-74
2022/06/29 11:54:52;;;;;;;5.35;3.90;;;;;25.30;93973.00;;;;7390687;19;20132;-75
2022/06/29 11:57:20;;;;;;;3.80;3.50;;;;;24.90;93979.00;;;;7391150;19;20128;-76
2022/06/29 12:00:06;;;;;;;3.72;3.20;;;;;24.60;93979.00;;;;7392254;19;20132;-74
2022/06/29 12:02:34;;;;;;;9.38;3.63;;;;;24.30;93987.00;;;;7392063;19;20127;-75
2022/06/29 12:05:13;;;;;;;6.18;3.90;;;;;23.90;93984.00;;;;7390159;19;20116;-74
2022/06/29 12:07:41;;;;;;;3.90;3.50;;;;;23.80;93981.00;;;;7390388;19;20615;-77
2022/06/29 12:10:16;;;;;;;6.10;3.05;;;;;23.80;93981.00;;;;7387396;19;20138;-76
2022/06/29 12:12:44;;;;;;;7.35;3.70;;;;;24.00;93977.00;;;;7385723;19;20196;-75
2022/06/29 12:15:13;;;;;;;4.00;3.70;;;;;23.90;93982.00;;;;7388023;19;20151;-76
2022/06/29 12:17:47;;;;;;;4.03;3.40;;;;;23.90;93991.00;;;;7385484;19;20124;-76
2022/06/29 12:20:18;;;;;;;3.45;3.15;;;;;23.80;93979.00;;;;7384052;19;20935;-76
2022/06/29 12:23:03;;;;;;;3.80;3.50;;;;;23.80;93982.00;;;;7382825;19;20457;-76
2022/06/29 12:25:50;;;;;;;5.35;4.47;;;;;23.30;93983.00;;;;7381889;19;20144;-76
2022/06/29 12:28:25;;;;;;;4.00;3.53;;;;;23.10;93988.00;;;;7383989;19;20133;-77
2022/06/29 12:30:59;;;;;;;4.13;3.67;;;;;22.60;93992.00;;;;7386784;19;20698;-76
2022/06/29 12:33:26;;;;;;;6.18;4.30;;;;;22.70;93994.00;;;;7383323;19;20208;-76
2022/06/29 12:35:54;;;;;;;4.45;3.60;;;;;22.60;93988.00;;;;7384542;19;20158;-76
2022/06/29 12:38:28;;;;;;;4.10;3.72;;;;;22.40;93990.00;;;;7384153;19;20144;-77
2022/06/29 12:40:56;;;;;;;5.53;4.10;;;;;22.60;93985.00;;;;7382605;19;20174;-77
2022/06/29 12:43:24;;;;;;;4.88;3.95;;;;;22.90;93977.00;;;;7382706;19;20140;-77
2022/06/29 12:45:59;;;;;;;3.92;3.60;;;;;22.90;93974.00;;;;7380169;19;21027;-75
2022/06/29 12:48:27;;;;;;;5.95;3.92;;;;;23.30;93968.00;;;;7391709;19;20140;-77
2022/06/29 12:50:55;;;;;;;4.13;3.67;;;;;23.90;93966.00;;;;7390842;19;20145;-77
2022/06/29 12:53:29;;;;;;;3.55;3.30;;;;;24.80;93964.00;;;;7392889;19;20612;-76
2022/06/29 12:55:59;;;;;;;6.55;3.60;;;;;25.00;93950.00;;;;7390883;19;20132;-75
2022/06/29 12:58:33;;;;;;;4.07;3.50;;;;;25.20;93954.00;;;;7390066;19;20711;-76
2022/06/29 13:01:07;;;;;;;3.45;3.15;;;;;25.30;93964.00;;;;7389172;19;20128;-76
2022/06/29 13:03:37;;;;;;;4.20;3.75;;;;;24.70;93966.00;;;;7388593;19;20132;-75
2022/06/29 13:06:05;;;;;;;4.65;3.80;;;;;24.60;93967.00;;;;7390406;19;20140;-76